Time;durP1;ratioP1;P1;durP2;ratioP2;P2;SDS_P1;SDS_P2;PMS_P1;PMS_P2;Temp;Humidity;BMP_temperature;BMP_pressure;BME280_temperature;BME280_humidity;BME280_pressure;Samples;Min_cycle;Max_cycle;Signal;HPM_P1;HPM_P2
2023/07/02 00:01:57;;;;;;;4.80;2.70;;;19.90;93.00;;;;;;5014356;28;20435;-69
2023/07/02 00:04:24;;;;;;;5.37;2.40;;;19.90;93.20;;;;;;5013949;28;20902;-70
2023/07/02 00:06:53;;;;;;;4.20;2.13;;;19.80;93.40;;;;;;5012751;28;20923;-70
2023/07/02 00:09:21;;;;;;;3.17;1.97;;;19.80;93.30;;;;;;4994353;28;20466;-70
2023/07/02 00:11:48;;;;;;;4.33;1.60;;;19.80;93.70;;;;;;4994583;28;20474;-70
2023/07/02 00:14:15;;;;;;;4.07;1.90;;;19.80;93.90;;;;;;4994493;28;20478;-70
2023/07/02 00:16:45;;;;;;;3.90;1.90;;;19.80;93.70;;;;;;4994556;28;20427;-70
2023/07/02 00:19:14;;;;;;;3.97;3.20;;;19.70;93.80;;;;;;5013883;28;20857;-70
2023/07/02 00:21:41;;;;;;;5.63;4.00;;;19.70;94.40;;;;;;5013973;28;20484;-70
2023/07/02 00:24:09;;;;;;;3.93;2.40;;;19.70;94.90;;;;;;5013699;28;20467;-70
2023/07/02 00:26:38;;;;;;;4.50;2.00;;;19.60;95.00;;;;;;5013984;28;20430;-70
2023/07/02 00:29:06;;;;;;;2.70;1.20;;;19.70;95.10;;;;;;4995247;28;20443;-70
2023/07/02 00:31:34;;;;;;;2.30;1.13;;;19.70;95.30;;;;;;4994486;28;20774;-70
2023/07/02 00:34:01;;;;;;;2.57;1.30;;;19.60;95.20;;;;;;4994350;28;20439;-70
2023/07/02 00:36:29;;;;;;;3.13;1.37;;;19.60;94.90;;;;;;4994266;28;20446;-71
2023/07/02 00:38:56;;;;;;;2.40;1.23;;;19.50;95.10;;;;;;5010353;28;20475;-69
2023/07/02 00:41:23;;;;;;;7.00;1.30;;;19.50;95.10;;;;;;5013649;28;20551;-70
2023/07/02 00:43:54;;;;;;;3.23;2.07;;;19.50;95.40;;;;;;5013884;28;20501;-70
2023/07/02 00:46:22;;;;;;;2.43;1.13;;;19.50;95.50;;;;;;5013177;28;20430;-70
2023/07/02 00:48:50;;;;;;;2.30;1.40;;;19.40;95.40;;;;;;5013065;28;20472;-70
2023/07/02 00:51:19;;;;;;;2.07;1.10;;;19.40;95.40;;;;;;5013311;28;20461;-70
2023/07/02 00:53:46;;;;;;;2.40;1.20;;;19.40;95.50;;;;;;5013772;28;20470;-73
2023/07/02 00:56:14;;;;;;;1.93;0.90;;;19.30;95.80;;;;;;5013806;28;20446;-69
2023/07/02 00:58:48;;;;;;;5.50;1.63;;;19.30;96.00;;;;;;4999282;28;20471;-70
2023/07/02 01:01:17;;;;;;;2.40;1.20;;;19.20;96.30;;;;;;4993609;28;20963;-70
2023/07/02 01:03:54;;;;;;;1.90;0.97;;;19.20;96.70;;;;;;4993755;28;20475;-70
2023/07/02 01:06:28;;;;;;;4.00;1.13;;;19.20;96.70;;;;;;4994013;28;21035;-70
2023/07/02 01:08:56;;;;;;;2.10;0.90;;;19.20;96.40;;;;;;5009349;28;20434;-70
2023/07/02 01:11:27;;;;;;;1.93;1.07;;;19.20;96.20;;;;;;5013512;28;20443;-70
2023/07/02 01:13:59;;;;;;;1.80;0.87;;;19.20;96.40;;;;;;5013731;28;20437;-70
2023/07/02 01:16:27;;;;;;;1.93;1.00;;;19.20;96.60;;;;;;5013553;28;20423;-70
2023/07/02 01:18:55;;;;;;;2.97;0.93;;;19.10;96.60;;;;;;5012703;28;20482;-70
2023/07/02 01:21:26;;;;;;;2.77;1.43;;;19.10;96.80;;;;;;5013259;28;20502;-69
2023/07/02 01:23:53;;;;;;;2.70;0.93;;;19.10;96.70;;;;;;5013115;28;20482;-70
2023/07/02 01:26:20;;;;;;;1.90;0.90;;;19.10;96.30;;;;;;5013628;28;20465;-71
2023/07/02 01:28:47;;;;;;;2.20;1.10;;;19.10;96.30;;;;;;4998174;28;20934;-69
2023/07/02 01:31:14;;;;;;;2.00;0.90;;;19.10;96.40;;;;;;4993650;28;20532;-70
2023/07/02 01:33:42;;;;;;;3.23;1.43;;;19.10;96.20;;;;;;4993462;28;20497;-70
2023/07/02 01:36:09;;;;;;;2.10;1.13;;;19.10;96.60;;;;;;4993528;28;20526;-69
2023/07/02 01:38:37;;;;;;;2.23;1.13;;;19.10;96.50;;;;;;5006208;28;20489;-69
2023/07/02 01:41:04;;;;;;;2.10;1.00;;;19.10;96.00;;;;;;5012809;28;20506;-70
2023/07/02 01:43:31;;;;;;;1.93;1.03;;;19.10;95.80;;;;;;5013276;28;20497;-69
2023/07/02 01:45:59;;;;;;;2.20;1.20;;;19.10;96.00;;;;;;5013368;28;20520;-70
2023/07/02 01:48:26;;;;;;;2.67;1.20;;;19.10;96.00;;;;;;5002882;28;20447;-70
2023/07/02 01:50:53;;;;;;;2.40;1.30;;;19.10;95.50;;;;;;5013180;28;20442;-70
2023/07/02 01:53:20;;;;;;;2.50;1.77;;;19.10;95.20;;;;;;5013699;28;20435;-69
2023/07/02 01:55:49;;;;;;;2.80;1.30;;;19.00;95.10;;;;;;5004677;28;20481;-69
2023/07/02 01:58:16;;;;;;;2.07;1.33;;;19.00;95.20;;;;;;5006597;28;20772;-69
2023/07/02 02:00:43;;;;;;;2.07;1.10;;;19.00;95.30;;;;;;4996978;28;20521;-70
2023/07/02 02:03:09;;;;;;;2.33;1.27;;;19.00;95.60;;;;;;5013568;28;20471;-70
2023/07/02 02:05:36;;;;;;;2.20;1.17;;;19.00;95.50;;;;;;5016613;28;20488;-69
2023/07/02 02:08:03;;;;;;;2.30;1.13;;;18.90;95.90;;;;;;5008209;28;20474;-69
2023/07/02 02:10:30;;;;;;;3.80;1.20;;;19.00;95.80;;;;;;4996885;28;20474;-70
2023/07/02 02:12:59;;;;;;;3.10;1.60;;;19.00;95.80;;;;;;4996525;28;20478;-70
2023/07/02 02:15:25;;;;;;;2.60;1.50;;;19.00;96.20;;;;;;4996703;28;20490;-70
2023/07/02 02:17:52;;;;;;;3.53;2.13;;;19.00;96.30;;;;;;5002837;28;20759;-70
2023/07/02 02:20:20;;;;;;;2.80;1.50;;;19.00;96.00;;;;;;5016115;28;20580;-70
2023/07/02 02:22:47;;;;;;;5.70;2.27;;;19.00;96.30;;;;;;5015904;28;20928;-69
2023/07/02 02:25:13;;;;;;;3.63;2.07;;;19.00;96.30;;;;;;5016378;28;20467;-70
2023/07/02 02:27:40;;;;;;;2.97;1.87;;;19.00;96.20;;;;;;5011192;28;20875;-69
2023/07/02 02:30:10;;;;;;;2.60;1.67;;;19.00;96.20;;;;;;4996446;28;20469;-69
2023/07/02 02:32:37;;;;;;;3.40;2.13;;;19.10;96.50;;;;;;5008716;28;20440;-75
2023/07/02 02:35:05;;;;;;;3.37;2.00;;;19.00;96.80;;;;;;5015253;28;20438;-69
2023/07/02 02:37:34;;;;;;;4.07;2.57;;;19.00;97.10;;;;;;5015834;28;20434;-69
2023/07/02 02:40:01;;;;;;;2.80;1.87;;;19.00;97.10;;;;;;5015410;28;20471;-69
2023/07/02 02:42:28;;;;;;;4.20;1.90;;;19.00;97.00;;;;;;5001245;28;20478;-73
2023/07/02 02:44:56;;;;;;;5.17;2.70;;;19.00;97.30;;;;;;4976785;28;20491;-70
2023/07/02 02:47:24;;;;;;;3.43;1.90;;;19.00;97.50;;;;;;4976449;28;20464;-70
2023/07/02 02:49:51;;;;;;;3.07;1.87;;;19.00;97.20;;;;;;4976348;28;20436;-70
2023/07/02 02:52:18;;;;;;;2.90;1.60;;;19.00;97.20;;;;;;5000837;28;20474;-70
2023/07/02 02:54:46;;;;;;;2.40;1.83;;;18.90;97.10;;;;;;5015580;28;20836;-69
2023/07/02 02:57:13;;;;;;;3.20;2.30;;;18.80;97.40;;;;;;4997120;28;20470;-70
2023/07/02 02:59:40;;;;;;;2.97;2.07;;;18.80;97.50;;;;;;4995963;28;20943;-70
2023/07/02 03:02:07;;;;;;;3.33;2.23;;;18.80;97.80;;;;;;5005791;28;20513;-70
2023/07/02 03:04:39;;;;;;;3.17;1.83;;;18.60;98.10;;;;;;5015054;28;20524;-69
2023/07/02 03:07:06;;;;;;;5.10;2.00;;;18.60;98.60;;;;;;4976447;28;20431;-70
2023/07/02 03:09:33;;;;;;;3.13;1.87;;;18.50;98.60;;;;;;4978410;28;20494;-70
2023/07/02 03:12:00;;;;;;;3.40;1.93;;;18.40;98.70;;;;;;5005167;28;20506;-70
2023/07/02 03:14:27;;;;;;;3.70;2.10;;;18.40;99.00;;;;;;4995377;28;20470;-70
2023/07/02 03:16:54;;;;;;;3.73;2.10;;;18.40;99.00;;;;;;4995864;28;20438;-70
2023/07/02 03:19:21;;;;;;;3.00;1.70;;;18.20;99.60;;;;;;4995708;28;20518;-70
2023/07/02 03:21:49;;;;;;;2.90;1.97;;;18.10;99.90;;;;;;5006532;28;20559;-69
2023/07/02 03:24:16;;;;;;;4.13;2.70;;;18.10;99.90;;;;;;4995419;28;20478;-70
2023/07/02 03:26:44;;;;;;;3.60;2.03;;;18.10;99.90;;;;;;4995033;28;20469;-70
2023/07/02 03:29:11;;;;;;;5.87;2.43;;;18.10;99.90;;;;;;4995341;28;20473;-69
2023/07/02 03:31:38;;;;;;;2.80;1.90;;;18.10;99.90;;;;;;5000639;28;20862;-69
2023/07/02 03:34:07;;;;;;;3.60;2.33;;;18.10;99.90;;;;;;5014597;28;20434;-70
2023/07/02 03:36:34;;;;;;;3.97;2.73;;;18.20;99.90;;;;;;5014859;28;20465;-70
2023/07/02 03:39:03;;;;;;;4.17;2.67;;;18.20;99.90;;;;;;5015013;28;20465;-70
2023/07/02 03:41:30;;;;;;;4.27;2.40;;;18.20;99.90;;;;;;5009253;28;20477;-69
2023/07/02 03:43:57;;;;;;;3.17;2.10;;;18.00;99.90;;;;;;4995230;28;20501;-69
2023/07/02 03:46:23;;;;;;;3.90;2.63;;;18.00;99.90;;;;;;4995119;28;20466;-70
2023/07/02 03:48:50;;;;;;;4.67;2.97;;;18.00;99.90;;;;;;4994662;28;20471;-70
2023/07/02 03:51:17;;;;;;;3.90;3.07;;;18.00;99.90;;;;;;4996942;28;20486;-70
2023/07/02 03:53:44;;;;;;;3.80;3.30;;;17.80;99.90;;;;;;5014444;28;20444;-70
2023/07/02 03:56:12;;;;;;;4.17;3.00;;;17.70;99.90;;;;;;5014491;28;20461;-70
2023/07/02 03:58:41;;;;;;;4.03;2.97;;;17.70;99.90;;;;;;5014494;28;20441;-70
2023/07/02 04:01:08;;;;;;;3.80;2.50;;;17.70;99.90;;;;;;5000210;28;20546;-70
2023/07/02 04:03:35;;;;;;;4.53;3.20;;;17.70;99.90;;;;;;4994357;28;20947;-69
2023/07/02 04:06:02;;;;;;;4.30;3.00;;;17.60;99.90;;;;;;4994601;28;20422;-70
2023/07/02 04:08:29;;;;;;;4.07;3.27;;;17.60;99.90;;;;;;4994735;28;20436;-70
2023/07/02 04:10:56;;;;;;;4.80;3.60;;;17.60;99.90;;;;;;5005731;28;20445;-69
2023/07/02 04:13:24;;;;;;;4.70;3.43;;;17.60;99.90;;;;;;5014224;28;20465;-70
2023/07/02 04:15:51;;;;;;;3.83;3.00;;;17.60;99.90;;;;;;5013731;28;20434;-70
2023/07/02 04:18:18;;;;;;;3.80;2.63;;;17.60;99.90;;;;;;5013886;28;20434;-70
2023/07/02 04:20:44;;;;;;;5.03;3.57;;;17.70;99.90;;;;;;5003819;28;20505;-70
2023/07/02 04:23:11;;;;;;;5.13;4.00;;;17.60;99.90;;;;;;4994447;28;20517;-70
2023/07/02 04:25:38;;;;;;;5.63;4.07;;;17.60;99.90;;;;;;4994122;28;20470;-70
2023/07/02 04:28:05;;;;;;;4.80;4.23;;;17.60;99.90;;;;;;4999085;28;20437;-70
2023/07/02 04:30:34;;;;;;;3.87;2.93;;;17.60;99.90;;;;;;5013658;28;20462;-70
2023/07/02 04:33:00;;;;;;;7.50;3.70;;;17.70;99.90;;;;;;5013937;28;20466;-70
2023/07/02 04:35:28;;;;;;;4.50;3.17;;;17.80;99.90;;;;;;5013619;28;20492;-70
2023/07/02 04:37:54;;;;;;;4.10;3.40;;;17.90;99.90;;;;;;5010729;28;20439;-70
2023/07/02 04:40:21;;;;;;;4.20;2.93;;;17.90;99.90;;;;;;4993933;28;20527;-70
2023/07/02 04:42:48;;;;;;;5.00;2.90;;;18.00;99.90;;;;;;4993806;28;20499;-69
2023/07/02 04:45:16;;;;;;;4.10;3.33;;;18.00;99.90;;;;;;4993897;28;20438;-70
2023/07/02 04:47:45;;;;;;;5.13;3.10;;;18.10;99.90;;;;;;4994818;28;20462;-69
2023/07/02 04:50:12;;;;;;;4.90;3.80;;;18.10;99.90;;;;;;5013703;28;20433;-70
2023/07/02 04:52:39;;;;;;;4.97;3.67;;;18.10;99.90;;;;;;5013421;28;20473;-70
2023/07/02 04:55:07;;;;;;;4.60;3.03;;;18.20;99.90;;;;;;5013731;28;20520;-69
2023/07/02 04:57:34;;;;;;;3.87;2.70;;;18.20;99.90;;;;;;5012998;28;20541;-70
2023/07/02 05:00:01;;;;;;;3.83;2.50;;;18.20;99.90;;;;;;5013313;28;20476;-70
2023/07/02 05:02:28;;;;;;;4.20;2.50;;;18.30;99.90;;;;;;5013259;28;20477;-70
2023/07/02 05:04:57;;;;;;;4.13;2.80;;;18.30;99.90;;;;;;5013495;28;20437;-74
2023/07/02 05:07:24;;;;;;;4.57;2.83;;;18.30;99.90;;;;;;5013341;28;20471;-69
2023/07/02 05:09:52;;;;;;;5.83;3.30;;;18.30;99.90;;;;;;4995293;28;20446;-69
2023/07/02 05:12:19;;;;;;;4.17;3.33;;;18.30;99.90;;;;;;4993985;28;20464;-69
2023/07/02 05:14:46;;;;;;;4.20;2.80;;;18.30;99.90;;;;;;4995225;28;20473;-69
2023/07/02 05:17:14;;;;;;;7.23;2.97;;;18.30;99.90;;;;;;4994025;28;20561;-70
2023/07/02 05:19:41;;;;;;;4.50;2.80;;;18.30;99.90;;;;;;5009769;28;20441;-70
2023/07/02 05:22:10;;;;;;;5.47;3.20;;;18.30;99.90;;;;;;5013082;28;20823;-69
2023/07/02 05:24:37;;;;;;;5.50;3.33;;;18.30;99.90;;;;;;5013074;28;20489;-69
2023/07/02 05:27:05;;;;;;;4.93;3.50;;;18.30;99.90;;;;;;5013947;28;20500;-69
2023/07/02 05:29:32;;;;;;;4.97;2.97;;;18.30;99.90;;;;;;5001589;28;20440;-69
2023/07/02 05:31:59;;;;;;;5.10;3.70;;;18.30;99.90;;;;;;4997262;28;20471;-69
2023/07/02 05:34:26;;;;;;;4.93;3.57;;;18.30;99.90;;;;;;4997120;28;20485;-69
2023/07/02 05:36:52;;;;;;;4.30;2.90;;;18.30;99.90;;;;;;4997593;28;20468;-69
2023/07/02 05:39:21;;;;;;;6.23;4.60;;;18.30;99.90;;;;;;5010130;28;20473;-69
2023/07/02 05:41:48;;;;;;;4.10;3.23;;;18.20;99.90;;;;;;5016706;28;20473;-69
2023/07/02 05:44:15;;;;;;;8.23;3.43;;;18.20;99.90;;;;;;5017136;28;20453;-69
2023/07/02 05:46:42;;;;;;;6.33;3.30;;;18.20;99.90;;;;;;5011303;28;20466;-69
2023/07/02 05:49:09;;;;;;;5.00;3.50;;;18.20;99.90;;;;;;5008415;28;20436;-69
2023/07/02 05:51:36;;;;;;;5.57;4.03;;;18.30;99.90;;;;;;5016796;28;20434;-69
2023/07/02 05:54:03;;;;;;;4.40;3.60;;;18.30;99.90;;;;;;5016845;28;20459;-69
2023/07/02 05:56:31;;;;;;;4.30;3.20;;;18.30;99.90;;;;;;5012988;28;20430;-69
2023/07/02 05:58:58;;;;;;;4.03;2.70;;;18.40;99.90;;;;;;5006479;28;20948;-71
2023/07/02 06:01:25;;;;;;;5.60;3.30;;;18.30;99.90;;;;;;5016597;28;20512;-70
2023/07/02 06:03:52;;;;;;;4.20;3.20;;;18.40;99.90;;;;;;5016646;28;20431;-69
2023/07/02 06:06:19;;;;;;;3.60;2.83;;;18.40;99.90;;;;;;5016203;28;20427;-70
2023/07/02 06:08:46;;;;;;;8.60;3.30;;;18.50;99.90;;;;;;5012886;28;20430;-69
2023/07/02 06:11:13;;;;;;;5.10;2.80;;;18.50;99.90;;;;;;5016456;28;20488;-69
2023/07/02 06:13:42;;;;;;;4.63;3.50;;;18.50;99.90;;;;;;5016032;28;20918;-70
2023/07/02 06:16:09;;;;;;;3.17;2.50;;;18.40;99.90;;;;;;5016090;28;20434;-69
2023/07/02 06:18:36;;;;;;;4.30;2.70;;;18.40;99.90;;;;;;5008854;28;20473;-69
2023/07/02 06:21:03;;;;;;;3.37;2.10;;;18.40;99.90;;;;;;4998299;28;20528;-70
2023/07/02 06:23:40;;;;;;;4.90;2.40;;;18.40;99.90;;;;;;5016344;28;20775;-70
2023/07/02 06:26:07;;;;;;;4.23;2.60;;;18.40;99.90;;;;;;5016470;28;20429;-69
2023/07/02 06:28:33;;;;;;;4.00;2.43;;;18.40;99.90;;;;;;5011796;28;20461;-69
2023/07/02 06:31:02;;;;;;;3.20;2.00;;;18.40;99.90;;;;;;5016108;28;20477;-69
2023/07/02 06:33:29;;;;;;;3.20;2.13;;;18.40;99.90;;;;;;5015747;28;20921;-70
2023/07/02 06:35:56;;;;;;;3.43;2.50;;;18.50;99.90;;;;;;5015516;28;20478;-69
2023/07/02 06:38:22;;;;;;;4.30;2.50;;;18.60;99.90;;;;;;5010632;28;20817;-70
2023/07/02 06:40:49;;;;;;;3.60;2.33;;;18.60;99.90;;;;;;4996354;28;20463;-70
2023/07/02 06:43:16;;;;;;;3.77;2.67;;;18.70;99.90;;;;;;4996544;28;20518;-69
2023/07/02 06:45:43;;;;;;;3.83;2.40;;;18.70;99.90;;;;;;4996302;28;20438;-70
2023/07/02 06:48:11;;;;;;;3.03;2.03;;;18.70;99.90;;;;;;4998614;28;20504;-70
2023/07/02 06:50:38;;;;;;;3.57;2.67;;;18.80;99.90;;;;;;5015669;28;20512;-69
2023/07/02 06:53:05;;;;;;;3.03;2.30;;;18.80;99.90;;;;;;5013699;28;20592;-70
2023/07/02 06:55:32;;;;;;;3.30;2.37;;;18.90;99.90;;;;;;5015145;28;20437;-70
2023/07/02 06:57:59;;;;;;;3.40;2.20;;;18.90;99.90;;;;;;5013244;28;20474;-69
2023/07/02 07:00:26;;;;;;;3.87;2.20;;;19.00;99.90;;;;;;5008083;28;20933;-71
2023/07/02 07:02:53;;;;;;;3.27;1.90;;;19.00;99.90;;;;;;5014783;28;20510;-70
2023/07/02 07:05:21;;;;;;;3.53;2.50;;;19.10;99.90;;;;;;5014499;28;20482;-70
2023/07/02 07:07:48;;;;;;;3.97;2.70;;;19.10;99.90;;;;;;5014560;28;20430;-70
2023/07/02 07:10:15;;;;;;;4.97;2.00;;;19.10;99.90;;;;;;5003401;28;20447;-71
2023/07/02 07:12:42;;;;;;;3.53;1.90;;;19.10;99.90;;;;;;4994831;28;20434;-69
2023/07/02 07:15:10;;;;;;;4.37;3.07;;;19.10;99.90;;;;;;4995097;28;20428;-69
2023/07/02 07:17:37;;;;;;;3.57;2.20;;;19.10;99.90;;;;;;4995199;28;20506;-69
2023/07/02 07:20:05;;;;;;;5.03;3.63;;;19.10;99.90;;;;;;5003585;28;20471;-71
2023/07/02 07:22:34;;;;;;;5.90;3.40;;;19.20;99.90;;;;;;5011459;28;20540;-69
2023/07/02 07:25:01;;;;;;;4.80;3.73;;;19.20;99.90;;;;;;4994953;28;20438;-70
2023/07/02 07:27:28;;;;;;;6.20;4.03;;;19.20;99.30;;;;;;4994902;28;20432;-70
2023/07/02 07:29:55;;;;;;;5.07;4.00;;;19.20;99.20;;;;;;5002101;28;20469;-70
2023/07/02 07:32:22;;;;;;;6.67;4.70;;;19.20;99.10;;;;;;5014021;28;20482;-70
2023/07/02 07:34:49;;;;;;;6.23;4.77;;;19.20;98.60;;;;;;5013539;28;20443;-70
2023/07/02 07:37:16;;;;;;;8.57;5.73;;;19.20;98.80;;;;;;5014341;28;20429;-70
2023/07/02 07:39:44;;;;;;;5.33;4.47;;;19.20;98.80;;;;;;5013834;28;20439;-70
2023/07/02 07:42:11;;;;;;;9.60;4.97;;;19.30;97.80;;;;;;5011572;28;20514;-69
2023/07/02 07:44:38;;;;;;;7.40;5.37;;;19.30;97.90;;;;;;5000113;28;20463;-69
2023/07/02 07:47:05;;;;;;;5.87;4.40;;;19.30;97.90;;;;;;5013169;28;20532;-72
2023/07/02 07:49:32;;;;;;;8.73;5.50;;;19.40;97.40;;;;;;5010320;28;20905;-70
2023/07/02 07:51:59;;;;;;;6.97;5.30;;;19.40;97.30;;;;;;4996926;28;20443;-70
2023/07/02 07:54:26;;;;;;;9.10;5.33;;;19.40;97.20;;;;;;4994377;28;20442;-70
2023/07/02 07:56:54;;;;;;;10.13;6.03;;;19.50;97.00;;;;;;4994211;28;20444;-71
2023/07/02 07:59:21;;;;;;;6.80;5.13;;;19.50;96.70;;;;;;4995844;28;20431;-70
2023/07/02 08:01:49;;;;;;;7.10;5.20;;;19.60;96.90;;;;;;4999345;28;20756;-69
2023/07/02 08:04:16;;;;;;;10.83;5.63;;;19.60;96.80;;;;;;4994214;28;20435;-69
2023/07/02 08:06:43;;;;;;;8.93;5.97;;;19.70;95.60;;;;;;4994065;28;20848;-70
2023/07/02 08:09:10;;;;;;;8.60;5.30;;;19.70;95.40;;;;;;4994389;28;20463;-69
2023/07/02 08:11:37;;;;;;;10.83;6.80;;;19.70;94.50;;;;;;4995227;28;20495;-70
2023/07/02 08:14:05;;;;;;;8.80;6.53;;;19.70;94.10;;;;;;4998435;28;20446;-69
2023/07/02 08:16:37;;;;;;;9.30;7.00;;;19.70;94.00;;;;;;5013559;28;20480;-69
2023/07/02 08:19:05;;;;;;;10.30;8.00;;;19.70;93.70;;;;;;5000937;28;20470;-69
2023/07/02 08:21:32;;;;;;;8.90;7.33;;;19.70;93.70;;;;;;5008522;28;20449;-70
2023/07/02 08:23:58;;;;;;;9.00;6.70;;;19.70;94.10;;;;;;4993388;28;20474;-70
2023/07/02 08:26:25;;;;;;;9.83;6.57;;;19.70;93.80;;;;;;5006240;28;20491;-70
2023/07/02 08:28:52;;;;;;;10.80;8.00;;;19.70;93.00;;;;;;5003861;28;20959;-69
2023/07/02 08:31:20;;;;;;;11.97;7.47;;;19.60;92.80;;;;;;4993098;28;20439;-70
2023/07/02 08:33:47;;;;;;;14.30;8.40;;;19.60;92.70;;;;;;4992789;28;20463;-70
2023/07/02 08:36:14;;;;;;;12.37;8.70;;;19.60;92.80;;;;;;4993197;28;20481;-70
2023/07/02 08:38:43;;;;;;;11.90;7.37;;;19.60;92.70;;;;;;4991193;28;20430;-69
2023/07/02 08:41:10;;;;;;;12.63;8.77;;;19.60;93.10;;;;;;4993552;28;20499;-70
2023/07/02 08:43:38;;;;;;;16.90;10.00;;;19.70;93.00;;;;;;4990834;28;20806;-69
2023/07/02 08:46:06;;;;;;;11.27;8.10;;;19.80;93.00;;;;;;4992840;28;21175;-70
2023/07/02 08:48:35;;;;;;;14.57;8.87;;;19.80;92.40;;;;;;5011822;28;20444;-70
2023/07/02 08:51:03;;;;;;;13.77;9.97;;;19.80;91.80;;;;;;4998185;28;20576;-69
2023/07/02 08:53:33;;;;;;;11.20;9.00;;;19.90;92.10;;;;;;4992916;28;20453;-70
2023/07/02 08:56:00;;;;;;;14.17;9.80;;;19.90;92.20;;;;;;4995144;28;20464;-69
2023/07/02 08:58:27;;;;;;;11.43;8.27;;;19.90;92.10;;;;;;4992752;28;20459;-71
2023/07/02 09:01:08;;;;;;;13.03;9.10;;;20.00;92.00;;;;;;4994653;28;20462;-70
2023/07/02 09:03:38;;;;;;;17.07;10.97;;;20.10;91.40;;;;;;4985674;28;20483;-71
2023/07/02 09:06:05;;;;;;;14.30;11.03;;;20.10;91.70;;;;;;5006491;28;20455;-70
2023/07/02 09:08:33;;;;;;;16.80;10.10;;;20.20;91.90;;;;;;4996647;28;20459;-70
2023/07/02 09:11:08;;;;;;;16.40;12.40;;;20.30;91.40;;;;;;4995445;28;20432;-75
2023/07/02 09:13:44;;;;;;;14.97;11.47;;;20.30;91.40;;;;;;4999459;28;20901;-70
2023/07/02 09:16:25;;;;;;;23.93;11.67;;;20.40;90.70;;;;;;4986964;28;20435;-70
2023/07/02 09:19:03;;;;;;;16.27;11.93;;;20.40;88.90;;;;;;4996595;28;21056;-70
2023/07/02 09:21:40;;;;;;;18.57;12.20;;;20.50;86.90;;;;;;5008643;28;20522;-70
2023/07/02 09:24:15;;;;;;;19.00;13.20;;;20.50;87.90;;;;;;5007118;28;20473;-70
2023/07/02 09:26:44;;;;;;;21.00;12.13;;;20.50;85.80;;;;;;4996775;28;20470;-70
2023/07/02 09:29:11;;;;;;;18.80;14.30;;;20.50;86.20;;;;;;5009645;28;20436;-70
2023/07/02 09:31:45;;;;;;;19.80;13.83;;;20.60;87.10;;;;;;5016450;28;20959;-69
2023/07/02 09:34:13;;;;;;;18.40;13.90;;;20.60;83.40;;;;;;4998465;28;20517;-70
2023/07/02 09:36:41;;;;;;;25.10;14.60;;;20.60;83.60;;;;;;5015553;28;20920;-71
2023/07/02 09:39:09;;;;;;;20.30;13.37;;;20.70;83.50;;;;;;4999851;28;20526;-70
2023/07/02 09:41:37;;;;;;;22.73;13.77;;;20.70;83.20;;;;;;4996754;28;20433;-72
2023/07/02 09:44:04;;;;;;;24.43;14.07;;;20.70;82.30;;;;;;4996204;28;20485;-70
2023/07/02 09:46:32;;;;;;;21.97;14.13;;;20.70;82.00;;;;;;4996456;28;20491;-69
2023/07/02 09:49:01;;;;;;;26.10;14.53;;;20.70;82.10;;;;;;4999519;28;20467;-70
2023/07/02 09:51:29;;;;;;;22.50;14.03;;;20.70;81.10;;;;;;5002059;28;20436;-69
2023/07/02 09:53:57;;;;;;;19.97;13.60;;;20.60;79.20;;;;;;4996157;28;20513;-71
2023/07/02 09:56:24;;;;;;;24.20;15.10;;;20.60;80.60;;;;;;4996282;28;20942;-69
2023/07/02 09:58:51;;;;;;;23.07;14.77;;;20.70;78.80;;;;;;4996042;28;20436;-70
2023/07/02 10:01:19;;;;;;;22.17;14.70;;;20.70;79.90;;;;;;4993062;28;20512;-70
2023/07/02 10:03:46;;;;;;;21.13;14.50;;;20.70;80.60;;;;;;4996296;28;20530;-70
2023/07/02 10:06:13;;;;;;;20.87;14.17;;;20.80;78.60;;;;;;4995625;28;20515;-76
2023/07/02 10:08:41;;;;;;;22.60;13.90;;;20.90;78.70;;;;;;4980955;28;20437;-70
2023/07/02 10:11:10;;;;;;;23.57;15.57;;;20.90;79.60;;;;;;4996642;28;20485;-72
2023/07/02 10:13:38;;;;;;;21.60;13.27;;;20.90;79.40;;;;;;4993796;28;20443;-69
2023/07/02 10:16:06;;;;;;;22.67;13.17;;;21.00;79.60;;;;;;5013417;28;20472;-71
2023/07/02 10:18:34;;;;;;;16.47;12.67;;;21.20;78.90;;;;;;4999834;28;20809;-70
2023/07/02 10:21:01;;;;;;;22.07;14.87;;;21.30;78.80;;;;;;5006939;28;20441;-70
2023/07/02 10:23:35;;;;;;;21.90;15.10;;;21.40;78.10;;;;;;4994904;28;20476;-70
2023/07/02 10:26:16;;;;;;;18.63;11.73;;;21.40;78.70;;;;;;5006541;28;20436;-70
2023/07/02 10:28:43;;;;;;;22.07;14.27;;;21.50;78.10;;;;;;4995203;28;20511;-72
2023/07/02 10:31:21;;;;;;;25.37;14.73;;;21.60;75.40;;;;;;5005424;28;20521;-70
2023/07/02 10:33:48;;;;;;;18.63;13.33;;;21.60;75.00;;;;;;4996571;28;20487;-70
2023/07/02 10:36:20;;;;;;;17.83;12.83;;;21.60;75.10;;;;;;5004187;28;20472;-70
2023/07/02 10:38:48;;;;;;;21.10;13.80;;;21.70;75.10;;;;;;4994980;28;20508;-70
2023/07/02 10:41:26;;;;;;;17.70;13.43;;;21.90;76.60;;;;;;4995480;28;20490;-70
2023/07/02 10:43:53;;;;;;;16.63;12.80;;;22.10;77.10;;;;;;4995741;28;20847;-74
2023/07/02 10:46:21;;;;;;;20.20;14.47;;;22.30;76.20;;;;;;5000488;28;20438;-70
2023/07/02 10:48:54;;;;;;;17.33;12.07;;;22.40;73.50;;;;;;5009007;28;20428;-71
2023/07/02 10:51:22;;;;;;;23.40;13.07;;;22.40;73.70;;;;;;5007864;28;20434;-70
2023/07/02 10:53:58;;;;;;;21.97;12.90;;;22.40;72.20;;;;;;4995203;28;21149;-70
2023/07/02 10:56:27;;;;;;;15.47;11.77;;;22.40;72.00;;;;;;5001795;28;20456;-70
2023/07/02 10:58:55;;;;;;;17.10;11.63;;;22.40;72.80;;;;;;4997454;28;20491;-70
2023/07/02 11:01:27;;;;;;;21.27;11.70;;;22.40;70.10;;;;;;4994950;28;20448;-70
2023/07/02 11:03:58;;;;;;;18.80;12.43;;;22.40;71.10;;;;;;4996309;28;21148;-68
2023/07/02 11:06:25;;;;;;;18.43;10.80;;;22.50;73.60;;;;;;4998781;28;20517;-70
2023/07/02 11:08:52;;;;;;;19.40;11.10;;;22.70;69.10;;;;;;5005279;28;20798;-70
2023/07/02 11:11:19;;;;;;;17.37;12.10;;;22.80;69.60;;;;;;4994748;28;20504;-72
2023/07/02 11:13:51;;;;;;;14.20;10.20;;;22.90;70.90;;;;;;4993247;28;20446;-71
2023/07/02 11:16:25;;;;;;;20.83;10.37;;;23.00;70.30;;;;;;4994507;28;20986;-70
2023/07/02 11:19:08;;;;;;;15.90;11.70;;;23.20;71.40;;;;;;4994659;28;20483;-70
2023/07/02 11:21:51;;;;;;;14.20;9.23;;;23.40;71.50;;;;;;4994734;28;20465;-69
2023/07/02 11:24:33;;;;;;;18.43;9.87;;;23.60;70.60;;;;;;4994165;28;20501;-70
2023/07/02 11:27:06;;;;;;;14.13;10.67;;;23.70;67.00;;;;;;4993173;28;20909;-70
2023/07/02 11:29:38;;;;;;;12.67;8.80;;;23.80;66.40;;;;;;4994925;28;20418;-69
2023/07/02 11:32:10;;;;;;;14.80;10.00;;;23.80;66.70;;;;;;4994329;28;20422;-70
2023/07/02 11:34:39;;;;;;;14.60;9.10;;;23.80;67.40;;;;;;4994724;28;20455;-69
2023/07/02 11:37:09;;;;;;;14.00;9.03;;;24.00;69.40;;;;;;4994717;28;20522;-70
2023/07/02 11:39:36;;;;;;;14.07;10.10;;;24.10;68.00;;;;;;4994296;28;20505;-71
2023/07/02 11:42:03;;;;;;;13.13;9.47;;;24.30;66.10;;;;;;4994315;28;20435;-69
2023/07/02 11:44:31;;;;;;;11.87;9.40;;;24.40;65.40;;;;;;4994515;28;20489;-69
2023/07/02 11:47:00;;;;;;;12.23;9.70;;;24.50;65.00;;;;;;4994502;28;20846;-71
2023/07/02 11:49:27;;;;;;;11.63;7.90;;;24.60;67.30;;;;;;4994160;28;20438;-70
2023/07/02 11:51:55;;;;;;;12.40;8.40;;;24.70;62.40;;;;;;4993220;28;20789;-70
2023/07/02 11:54:22;;;;;;;13.87;8.73;;;24.80;63.30;;;;;;4986078;28;20435;-69
2023/07/02 11:56:49;;;;;;;15.60;9.37;;;24.90;64.40;;;;;;4993770;28;20439;-70
2023/07/02 11:59:16;;;;;;;12.73;9.60;;;24.90;64.50;;;;;;4993984;28;20466;-69
2023/07/02 12:01:43;;;;;;;14.37;10.37;;;25.10;62.20;;;;;;5012935;28;20932;-69
2023/07/02 12:04:13;;;;;;;11.03;8.40;;;25.20;60.30;;;;;;5013529;28;20513;-69
2023/07/02 12:06:40;;;;;;;11.73;8.77;;;25.20;60.20;;;;;;5011165;28;20454;-70
2023/07/02 12:09:09;;;;;;;14.30;9.40;;;25.30;59.60;;;;;;5005435;28;20437;-70
2023/07/02 12:11:36;;;;;;;12.67;8.50;;;25.30;60.90;;;;;;4997696;28;20494;-70
2023/07/02 12:14:03;;;;;;;10.67;7.90;;;25.30;60.30;;;;;;4993891;28;20440;-70
2023/07/02 12:16:30;;;;;;;9.53;6.67;;;25.40;61.90;;;;;;4993323;28;20439;-69
2023/07/02 12:18:57;;;;;;;9.70;6.80;;;25.50;59.70;;;;;;4992903;28;20444;-69
2023/07/02 12:21:25;;;;;;;11.43;6.83;;;25.60;59.60;;;;;;4993879;28;20432;-69
2023/07/02 12:23:52;;;;;;;16.90;6.80;;;25.60;60.30;;;;;;5009689;28;20539;-70
2023/07/02 12:26:19;;;;;;;10.53;7.00;;;25.80;59.10;;;;;;5007302;28;20466;-69
2023/07/02 12:28:45;;;;;;;7.70;6.13;;;25.80;57.60;;;;;;4993364;28;20833;-70
2023/07/02 12:31:13;;;;;;;11.87;7.07;;;25.80;56.80;;;;;;4992733;28;20492;-69
2023/07/02 12:33:40;;;;;;;8.87;6.80;;;25.70;55.80;;;;;;5004819;28;20782;-71
2023/07/02 12:36:07;;;;;;;10.50;6.97;;;25.60;56.60;;;;;;4992625;28;20828;-69
2023/07/02 12:38:36;;;;;;;8.37;6.20;;;25.70;56.80;;;;;;4993693;28;20832;-70
2023/07/02 12:41:03;;;;;;;8.07;6.30;;;25.70;57.00;;;;;;4993341;28;20471;-70
2023/07/02 12:43:30;;;;;;;9.07;6.87;;;25.80;57.50;;;;;;4993294;28;20479;-70
2023/07/02 12:45:56;;;;;;;6.63;5.40;;;25.90;57.70;;;;;;4988958;28;20441;-70